Time;durP1;ratioP1;P1;durP2;ratioP2;P2;SDS_P1;SDS_P2;PMS_P1;PMS_P2;Temp;Humidity;BMP_temperature;BMP_pressure;BME280_temperature;BME280_humidity;BME280_pressure;Samples;Min_cycle;Max_cycle;Signal;HPM_P1;HPM_P2
2022/09/12 00:00:22;;;;;;;1.50;1.40;;;;;;;;;;5040645;28;20322;-71
2022/09/12 00:02:51;;;;;;;1.73;1.40;;;;;;;;;;5039237;28;20693;-71
2022/09/12 00:05:17;;;;;;;1.40;1.40;;;;;;;;;;5043682;28;20230;-71
2022/09/12 00:07:42;;;;;;;1.70;1.37;;;;;;;;;;5039915;28;20231;-71
2022/09/12 00:10:12;;;;;;;1.73;1.30;;;;;;;;;;5060921;28;20227;-70
2022/09/12 00:12:37;;;;;;;1.50;1.40;;;;;;;;;;5067832;28;20318;-71
2022/09/12 00:15:04;;;;;;;1.33;1.23;;;;;;;;;;5042801;28;20236;-71
2022/09/12 00:17:36;;;;;;;1.50;1.40;;;;;;;;;;5059912;28;20281;-70
2022/09/12 00:20:06;;;;;;;1.50;1.40;;;;;;;;;;5051226;28;20228;-71
2022/09/12 00:22:34;;;;;;;1.60;1.30;;;;;;;;;;5041563;28;20216;-71
2022/09/12 00:24:59;;;;;;;1.30;1.20;;;;;;;;;;5026916;28;20255;-71
2022/09/12 00:27:26;;;;;;;1.30;1.30;;;;;;;;;;5037695;28;20261;-70
2022/09/12 00:29:54;;;;;;;1.30;1.30;;;;;;;;;;5019332;28;20220;-71
2022/09/12 00:32:20;;;;;;;1.57;1.20;;;;;;;;;;5059181;28;20265;-71
2022/09/12 00:34:45;;;;;;;1.23;1.23;;;;;;;;;;5058945;28;20239;-72
2022/09/12 00:37:13;;;;;;;1.17;1.10;;;;;;;;;;5042147;28;20220;-71
2022/09/12 00:39:41;;;;;;;1.23;1.20;;;;;;;;;;5042141;28;20331;-71
2022/09/12 00:42:10;;;;;;;1.50;1.40;;;;;;;;;;5056657;28;20601;-72
2022/09/12 00:44:35;;;;;;;1.20;1.20;;;;;;;;;;5032024;28;20243;-71
2022/09/12 00:47:07;;;;;;;1.27;1.23;;;;;;;;;;5024272;28;20226;-71
2022/09/12 00:49:34;;;;;;;1.97;1.40;;;;;;;;;;5042115;28;20228;-71
2022/09/12 00:52:04;;;;;;;1.47;1.37;;;;;;;;;;5048208;28;20697;-71
2022/09/12 00:54:32;;;;;;;1.60;1.50;;;;;;;;;;5050709;28;20603;-72
2022/09/12 00:57:02;;;;;;;2.43;1.50;;;;;;;;;;5059945;28;20900;-72
2022/09/12 00:59:40;;;;;;;2.63;1.20;;;;;;;;;;5070171;28;20231;-71
2022/09/12 01:02:06;;;;;;;1.27;1.20;;;;;;;;;;5033522;28;20223;-72
2022/09/12 01:04:31;;;;;;;1.20;1.20;;;;;;;;;;5043604;28;20223;-71
2022/09/12 01:06:59;;;;;;;2.10;1.20;;;;;;;;;;5060132;28;20670;-71
2022/09/12 01:09:25;;;;;;;1.00;1.00;;;;;;;;;;5059950;28;20227;-71
2022/09/12 01:11:50;;;;;;;1.30;1.20;;;;;;;;;;5041191;28;20227;-72
2022/09/12 01:14:21;;;;;;;1.10;1.10;;;;;;;;;;5019668;28;20651;-71
2022/09/12 01:16:47;;;;;;;2.20;1.13;;;;;;;;;;5059462;28;20234;-71
2022/09/12 01:19:51;;;;;;;1.57;1.37;;;;;;;;;;5037314;28;20227;-72
2022/09/12 01:22:28;;;;;;;1.40;1.30;;;;;;;;;;5054968;28;20654;-71
2022/09/12 01:25:09;;;;;;;1.63;1.33;;;;;;;;;;5039712;28;20277;-72
2022/09/12 01:28:01;;;;;;;1.90;1.50;;;;;;;;;;5055875;28;20227;-71
2022/09/12 01:30:45;;;;;;;1.50;1.40;;;;;;;;;;5057409;28;20219;-72
2022/09/12 01:33:26;;;;;;;1.57;1.47;;;;;;;;;;5040378;28;20277;-71
2022/09/12 01:36:10;;;;;;;1.57;1.47;;;;;;;;;;5039811;28;20224;-71
2022/09/12 01:38:39;;;;;;;1.10;1.10;;;;;;;;;;5035042;28;20608;-71
2022/09/12 01:41:31;;;;;;;1.70;1.30;;;;;;;;;;5036006;28;20982;-72
2022/09/12 01:44:23;;;;;;;2.93;1.33;;;;;;;;;;5033252;28;20708;-71
2022/09/12 01:47:16;;;;;;;1.20;1.17;;;;;;;;;;5032121;28;20232;-72
2022/09/12 01:50:01;;;;;;;1.10;1.10;;;;;;;;;;5041031;28;20236;-71
2022/09/12 01:52:33;;;;;;;1.40;1.30;;;;;;;;;;5052433;28;20220;-70
2022/09/12 01:55:10;;;;;;;2.17;1.30;;;;;;;;;;5052009;28;20224;-72
2022/09/12 01:57:41;;;;;;;1.40;1.30;;;;;;;;;;5050130;28;20284;-71
2022/09/12 02:00:09;;;;;;;1.13;1.13;;;;;;;;;;5055428;28;20231;-72
2022/09/12 02:02:54;;;;;;;1.13;1.10;;;;;;;;;;5045984;28;21019;-71
2022/09/12 02:05:28;;;;;;;0.90;0.90;;;;;;;;;;5020409;28;20216;-72
2022/09/12 02:08:44;;;;;;;1.20;1.20;;;;;;;;;;5036222;28;20241;-71
2022/09/12 02:11:10;;;;;;;1.10;1.10;;;;;;;;;;5021393;28;20228;-71
2022/09/12 02:13:47;;;;;;;1.43;1.33;;;;;;;;;;5020029;28;21012;-73
2022/09/12 02:16:33;;;;;;;1.33;1.23;;;;;;;;;;5042725;28;20582;-72
2022/09/12 02:19:02;;;;;;;2.10;1.20;;;;;;;;;;5035409;28;20602;-72
2022/09/12 02:21:31;;;;;;;2.77;1.20;;;;;;;;;;5061300;28;20211;-71
2022/09/12 02:24:01;;;;;;;1.10;1.10;;;;;;;;;;5056166;28;20216;-72
2022/09/12 02:26:34;;;;;;;1.20;1.20;;;;;;;;;;5027373;28;20318;-71
2022/09/12 02:28:59;;;;;;;1.40;1.30;;;;;;;;;;5060701;28;20227;-71
2022/09/12 02:31:39;;;;;;;1.53;1.33;;;;;;;;;;5039516;28;20788;-72
2022/09/12 02:34:29;;;;;;;1.17;1.10;;;;;;;;;;5059120;28;20219;-72
2022/09/12 02:37:22;;;;;;;1.30;1.20;;;;;;;;;;5040883;28;20227;-71
2022/09/12 02:39:47;;;;;;;1.50;1.20;;;;;;;;;;5071068;28;20258;-71
2022/09/12 02:42:15;;;;;;;0.93;0.93;;;;;;;;;;5045267;28;20223;-72
2022/09/12 02:44:45;;;;;;;1.07;1.00;;;;;;;;;;5055314;28;20227;-71
2022/09/12 02:47:55;;;;;;;1.93;1.10;;;;;;;;;;5067615;28;20238;-73
2022/09/12 02:50:20;;;;;;;1.30;1.20;;;;;;;;;;4971088;28;20233;-72
2022/09/12 02:52:46;;;;;;;1.30;1.20;;;;;;;;;;4969324;28;20237;-72
2022/09/12 02:55:11;;;;;;;1.07;1.07;;;;;;;;;;4994926;28;20219;-74
2022/09/12 02:57:37;;;;;;;1.57;1.47;;;;;;;;;;5001025;28;20753;-73
2022/09/12 03:00:03;;;;;;;1.37;1.30;;;;;;;;;;5053528;28;20227;-72
2022/09/12 03:03:12;;;;;;;2.40;1.30;;;;;;;;;;5038664;28;20289;-73
2022/09/12 03:05:56;;;;;;;1.00;1.00;;;;;;;;;;5031578;28;20296;-73
2022/09/12 03:08:35;;;;;;;1.20;1.10;;;;;;;;;;5068727;28;20238;-73
2022/09/12 03:11:24;;;;;;;1.23;1.10;;;;;;;;;;5057521;28;20259;-72
2022/09/12 03:13:56;;;;;;;1.30;1.23;;;;;;;;;;5067975;28;20234;-72
2022/09/12 03:16:36;;;;;;;1.17;1.07;;;;;;;;;;5071413;28;20227;-72
2022/09/12 03:19:20;;;;;;;1.13;1.10;;;;;;;;;;5036791;28;20280;-72
2022/09/12 03:22:07;;;;;;;1.10;1.10;;;;;;;;;;5041347;28;20238;-72
2022/09/12 03:24:36;;;;;;;0.90;0.90;;;;;;;;;;5057036;28;20230;-71
2022/09/12 03:27:07;;;;;;;1.50;1.40;;;;;;;;;;5050252;28;20239;-73
2022/09/12 03:29:36;;;;;;;1.60;1.50;;;;;;;;;;5036596;28;20238;-72
2022/09/12 03:32:01;;;;;;;1.50;1.40;;;;;;;;;;5038526;28;20242;-72
2022/09/12 03:34:27;;;;;;;1.17;1.13;;;;;;;;;;5037753;28;20220;-72
2022/09/12 03:36:54;;;;;;;1.30;1.30;;;;;;;;;;5037185;28;20224;-72
2022/09/12 03:39:20;;;;;;;1.40;1.30;;;;;;;;;;5035233;28;20986;-71
2022/09/12 03:41:49;;;;;;;1.13;1.13;;;;;;;;;;5058240;28;20220;-72
2022/09/12 03:44:17;;;;;;;1.50;1.40;;;;;;;;;;5039314;28;20231;-70
2022/09/12 03:46:45;;;;;;;1.23;1.10;;;;;;;;;;5044731;28;20227;-72
2022/09/12 03:49:10;;;;;;;1.83;1.30;;;;;;;;;;5020053;28;20230;-72
2022/09/12 03:51:37;;;;;;;1.60;1.20;;;;;;;;;;5040971;28;20239;-72
2022/09/12 03:54:04;;;;;;;1.63;1.40;;;;;;;;;;5037402;28;20678;-72
2022/09/12 03:56:33;;;;;;;1.37;1.20;;;;;;;;;;5044313;28;20220;-71
2022/09/12 03:58:58;;;;;;;3.70;1.30;;;;;;;;;;5041822;28;20231;-71
2022/09/12 04:01:24;;;;;;;1.30;1.20;;;;;;;;;;5035855;28;20277;-72
2022/09/12 04:03:50;;;;;;;1.40;1.30;;;;;;;;;;5056491;28;20285;-71
2022/09/12 04:06:20;;;;;;;1.60;1.50;;;;;;;;;;5021762;28;21100;-71
2022/09/12 04:08:49;;;;;;;1.40;1.30;;;;;;;;;;5059093;28;20231;-73
2022/09/12 04:11:15;;;;;;;1.23;1.10;;;;;;;;;;5035634;28;20765;-72
2022/09/12 04:13:46;;;;;;;2.20;1.10;;;;;;;;;;5060607;28;20227;-71
2022/09/12 04:16:12;;;;;;;1.37;1.10;;;;;;;;;;5020143;28;20223;-73
2022/09/12 04:18:40;;;;;;;1.57;1.47;;;;;;;;;;5017043;28;20219;-71
2022/09/12 04:21:20;;;;;;;3.60;1.30;;;;;;;;;;5070882;28;20658;-72
2022/09/12 04:23:50;;;;;;;1.67;1.20;;;;;;;;;;5032547;28;20226;-72
2022/09/12 04:26:17;;;;;;;1.97;1.30;;;;;;;;;;5057695;28;20896;-71
2022/09/12 04:28:42;;;;;;;1.30;1.20;;;;;;;;;;5040164;28;20232;-70
2022/09/12 04:31:14;;;;;;;1.60;1.50;;;;;;;;;;5068896;28;20219;-70
2022/09/12 04:33:42;;;;;;;2.50;1.20;;;;;;;;;;5042235;28;20282;-73
2022/09/12 04:36:13;;;;;;;1.73;1.23;;;;;;;;;;5036821;28;20737;-72
2022/09/12 04:38:39;;;;;;;1.13;1.03;;;;;;;;;;5050981;28;20282;-72
2022/09/12 04:41:10;;;;;;;1.43;1.33;;;;;;;;;;5054332;28;20220;-72
2022/09/12 04:43:38;;;;;;;1.37;1.27;;;;;;;;;;5044877;28;20228;-71
2022/09/12 04:46:05;;;;;;;1.00;1.00;;;;;;;;;;5071750;28;20224;-71
2022/09/12 04:48:31;;;;;;;1.40;1.30;;;;;;;;;;5057268;28;20259;-73
2022/09/12 04:51:05;;;;;;;1.20;1.20;;;;;;;;;;5069989;28;20234;-72
2022/09/12 04:53:31;;;;;;;1.77;1.40;;;;;;;;;;5057126;28;20223;-70
2022/09/12 04:56:00;;;;;;;3.63;1.30;;;;;;;;;;5072788;28;20274;-70
2022/09/12 04:58:26;;;;;;;1.20;1.20;;;;;;;;;;5051564;28;20333;-73
2022/09/12 05:00:51;;;;;;;1.17;1.17;;;;;;;;;;5068427;28;20717;-72
2022/09/12 05:03:19;;;;;;;1.47;1.30;;;;;;;;;;5038406;28;20226;-71
2022/09/12 05:05:45;;;;;;;1.30;1.30;;;;;;;;;;5059343;28;20223;-73
2022/09/12 05:08:12;;;;;;;1.50;1.40;;;;;;;;;;5038888;28;20697;-70
2022/09/12 05:10:38;;;;;;;1.30;1.20;;;;;;;;;;5069496;28;20305;-72
2022/09/12 05:13:03;;;;;;;1.00;1.00;;;;;;;;;;5060511;28;20231;-72
2022/09/12 05:15:29;;;;;;;2.07;1.30;;;;;;;;;;5040876;28;20903;-70
2022/09/12 05:17:54;;;;;;;2.97;1.30;;;;;;;;;;5058186;28;20227;-72
2022/09/12 05:20:20;;;;;;;1.30;1.20;;;;;;;;;;5075291;28;20226;-71
2022/09/12 05:22:45;;;;;;;2.23;1.87;;;;;;;;;;5045360;28;20875;-70
2022/09/12 05:25:13;;;;;;;2.10;2.00;;;;;;;;;;5064375;28;20231;-73
2022/09/12 05:27:39;;;;;;;3.97;2.30;;;;;;;;;;5069479;28;20656;-72
2022/09/12 05:30:07;;;;;;;6.00;2.90;;;;;;;;;;5040216;28;20233;-71
2022/09/12 05:32:33;;;;;;;3.97;3.20;;;;;;;;;;5039570;28;20314;-72
2022/09/12 05:34:59;;;;;;;4.67;3.27;;;;;;;;;;5047097;28;20226;-70
2022/09/12 05:37:27;;;;;;;4.23;3.67;;;;;;;;;;5053959;28;20995;-69
2022/09/12 05:39:53;;;;;;;6.53;3.23;;;;;;;;;;5047226;28;20884;-71
2022/09/12 05:42:18;;;;;;;6.00;3.90;;;;;;;;;;5043285;28;20219;-72
2022/09/12 05:44:44;;;;;;;7.27;4.03;;;;;;;;;;5072048;28;20258;-70
2022/09/12 05:47:11;;;;;;;7.23;4.17;;;;;;;;;;5047106;28;20215;-70
2022/09/12 05:49:37;;;;;;;4.60;3.80;;;;;;;;;;5052230;28;20238;-70
2022/09/12 05:52:07;;;;;;;4.77;4.37;;;;;;;;;;5045659;28;20215;-71
2022/09/12 05:54:35;;;;;;;4.70;4.40;;;;;;;;;;5023126;28;20227;-72
2022/09/12 05:57:03;;;;;;;5.60;4.87;;;;;;;;;;5040630;28;20223;-72
2022/09/12 05:59:31;;;;;;;5.60;5.20;;;;;;;;;;5073115;28;20227;-71
2022/09/12 06:01:56;;;;;;;5.67;5.17;;;;;;;;;;5061035;28;20227;-71
2022/09/12 06:04:22;;;;;;;5.83;5.43;;;;;;;;;;5059771;28;20233;-71
2022/09/12 06:06:48;;;;;;;7.00;6.40;;;;;;;;;;5039575;28;20228;-71
2022/09/12 06:09:14;;;;;;;6.40;5.87;;;;;;;;;;5074573;28;20582;-72
2022/09/12 06:11:40;;;;;;;6.77;6.27;;;;;;;;;;5038077;28;20783;-71
2022/09/12 06:14:09;;;;;;;6.30;5.70;;;;;;;;;;5034867;28;20232;-71
2022/09/12 06:16:36;;;;;;;6.60;6.00;;;;;;;;;;5028834;28;20235;-71
2022/09/12 06:19:05;;;;;;;6.20;5.60;;;;;;;;;;5062369;28;20240;-72
2022/09/12 06:21:31;;;;;;;6.20;5.60;;;;;;;;;;5051858;28;20234;-72
2022/09/12 06:23:59;;;;;;;6.10;5.57;;;;;;;;;;5039208;28;20232;-72
2022/09/12 06:26:25;;;;;;;5.70;5.30;;;;;;;;;;5059320;28;20219;-72
2022/09/12 06:28:53;;;;;;;5.50;5.10;;;;;;;;;;5047095;28;20314;-71
2022/09/12 06:31:24;;;;;;;6.20;5.70;;;;;;;;;;5060054;28;20730;-72
2022/09/12 06:33:54;;;;;;;6.00;5.50;;;;;;;;;;5044136;28;20228;-72
2022/09/12 06:36:22;;;;;;;6.57;5.97;;;;;;;;;;5019200;28;20260;-71
2022/09/12 06:38:52;;;;;;;7.13;6.60;;;;;;;;;;5076902;28;20223;-71
2022/09/12 06:41:17;;;;;;;6.60;6.10;;;;;;;;;;5042369;28;20310;-71
2022/09/12 06:43:43;;;;;;;6.60;6.13;;;;;;;;;;5023588;28;20228;-73
2022/09/12 06:46:11;;;;;;;6.93;6.07;;;;;;;;;;5043856;28;20215;-72
2022/09/12 06:48:37;;;;;;;5.53;5.13;;;;;;;;;;5039937;28;20867;-72
2022/09/12 06:51:06;;;;;;;6.30;5.80;;;;;;;;;;5056058;28;20760;-71
2022/09/12 06:53:35;;;;;;;6.37;5.87;;;;;;;;;;5022997;28;21292;-72
2022/09/12 06:56:20;;;;;;;6.83;6.33;;;;;;;;;;5041484;28;20237;-72
2022/09/12 06:58:50;;;;;;;8.00;7.40;;;;;;;;;;5061093;28;20262;-70
2022/09/12 07:01:20;;;;;;;8.90;8.30;;;;;;;;;;5038674;28;20255;-70
2022/09/12 07:03:49;;;;;;;6.43;5.97;;;;;;;;;;5054823;28;20813;-73
2022/09/12 07:06:15;;;;;;;8.60;8.00;;;;;;;;;;5043594;28;20235;-73
2022/09/12 07:08:43;;;;;;;8.30;7.70;;;;;;;;;;5069484;28;20231;-71
2022/09/12 07:11:18;;;;;;;8.70;8.10;;;;;;;;;;5051836;28;20223;-72
2022/09/12 07:13:45;;;;;;;8.57;7.87;;;;;;;;;;5044011;28;20227;-74
2022/09/12 07:16:10;;;;;;;8.77;8.17;;;;;;;;;;5060006;28;20600;-73
2022/09/12 07:18:37;;;;;;;9.30;8.60;;;;;;;;;;5042586;28;20233;-72
2022/09/12 07:21:05;;;;;;;9.37;8.77;;;;;;;;;;5041934;28;20230;-72
2022/09/12 07:23:30;;;;;;;8.77;8.17;;;;;;;;;;5035970;28;20235;-73
2022/09/12 07:25:59;;;;;;;9.27;8.67;;;;;;;;;;5064505;28;20223;-71
2022/09/12 07:28:27;;;;;;;9.50;8.80;;;;;;;;;;5042826;28;20249;-71
2022/09/12 07:30:53;;;;;;;9.57;8.77;;;;;;;;;;5041785;28;20224;-71
2022/09/12 07:33:22;;;;;;;11.20;10.30;;;;;;;;;;5035557;28;20745;-70
2022/09/12 07:35:48;;;;;;;10.20;9.40;;;;;;;;;;5026926;28;20223;-70
2022/09/12 07:38:16;;;;;;;10.73;9.80;;;;;;;;;;5068785;28;20231;-71
2022/09/12 07:40:44;;;;;;;10.50;9.70;;;;;;;;;;5057042;28;20265;-71
2022/09/12 07:43:09;;;;;;;10.43;9.63;;;;;;;;;;5068068;28;20310;-71
2022/09/12 07:45:40;;;;;;;9.45;8.63;;;;;;;;;;5073422;28;20232;-71
2022/09/12 07:48:07;;;;;;;8.77;8.07;;;;;;;;;;5054214;28;20227;-72
2022/09/12 07:50:33;;;;;;;8.68;7.97;;;;;;;;;;5030504;28;20220;-72
2022/09/12 07:52:59;;;;;;;9.07;7.70;;;;;;;;;;5045225;28;20735;-72
2022/09/12 07:55:24;;;;;;;8.27;7.57;;;;;;;;;;5043430;28;20224;-71
2022/09/12 07:57:52;;;;;;;7.72;7.03;;;;;;;;;;5035582;28;20243;-72
2022/09/12 08:00:20;;;;;;;7.10;6.38;;;;;;;;;;5056594;28;20302;-71
2022/09/12 08:02:50;;;;;;;7.18;6.57;;;;;;;;;;5020728;28;20235;-72
2022/09/12 08:05:19;;;;;;;6.82;6.10;;;;;;;;;;5068047;28;20220;-72
2022/09/12 08:07:48;;;;;;;5.65;5.25;;;;;;;;;;5033201;28;20558;-71
2022/09/12 08:10:15;;;;;;;5.38;4.97;;;;;;;;;;5058109;28;20727;-72
2022/09/12 08:12:40;;;;;;;5.65;5.15;;;;;;;;;;5071339;28;20226;-72
2022/09/12 08:15:06;;;;;;;5.22;4.93;;;;;;;;;;5048222;28;20219;-72
2022/09/12 08:17:31;;;;;;;5.05;4.75;;;;;;;;;;5035989;28;20338;-71
2022/09/12 08:19:59;;;;;;;4.50;4.18;;;;;;;;;;5037986;28;20349;-71
2022/09/12 08:22:25;;;;;;;4.55;4.25;;;;;;;;;;5040630;28;20224;-71
2022/09/12 08:24:50;;;;;;;4.05;3.72;;;;;;;;;;5016603;28;20277;-71
2022/09/12 08:27:20;;;;;;;4.07;3.78;;;;;;;;;;5034492;28;20235;-72
2022/09/12 08:29:48;;;;;;;4.20;3.90;;;;;;;;;;5036565;28;20216;-72
2022/09/12 08:32:14;;;;;;;3.72;3.42;;;;;;;;;;5053950;28;20281;-72
2022/09/12 08:34:42;;;;;;;3.80;3.50;;;;;;;;;;5033938;28;20227;-71
2022/09/12 08:37:09;;;;;;;3.33;3.13;;;;;;;;;;5039924;28;20219;-70
2022/09/12 08:39:37;;;;;;;3.13;2.92;;;;;;;;;;5075017;28;20249;-70
2022/09/12 08:42:04;;;;;;;3.50;3.22;;;;;;;;;;5041241;28;20318;-72
2022/09/12 08:44:45;;;;;;;3.10;2.78;;;;;;;;;;5018958;28;20223;-72
2022/09/12 08:47:22;;;;;;;3.15;2.90;;;;;;;;;;5043661;28;20228;-71
2022/09/12 08:50:23;;;;;;;3.10;2.78;;;;;;;;;;5036204;28;20235;-71
2022/09/12 08:53:01;;;;;;;2.45;2.35;;;;;;;;;;5013744;28;20717;-71
2022/09/12 08:55:26;;;;;;;2.80;2.60;;;;;;;;;;5068000;28;20224;-70
2022/09/12 08:57:59;;;;;;;2.47;2.28;;;;;;;;;;5035212;28;20224;-71
2022/09/12 09:00:37;;;;;;;2.13;1.92;;;;;;;;;;5059519;28;20737;-71
2022/09/12 09:03:05;;;;;;;2.22;2.13;;;;;;;;;;5041913;28;20227;-73
2022/09/12 09:05:44;;;;;;;4.05;2.00;;;;;;;;;;5043201;28;20232;-71
2022/09/12 09:08:17;;;;;;;1.92;1.83;;;;;;;;;;5068408;28;20239;-72
2022/09/12 09:10:45;;;;;;;2.53;2.00;;;;;;;;;;5054700;28;20235;-72
2022/09/12 09:16:31;;;;;;;3.28;1.95;;;;;;;;;;5038986;28;20231;-71
2022/09/12 09:19:04;;;;;;;1.73;1.63;;;;;;;;;;5035714;28;20230;-71
2022/09/12 09:21:42;;;;;;;1.90;1.80;;;;;;;;;;5041718;28;20223;-71
2022/09/12 09:24:12;;;;;;;4.28;2.10;;;;;;;;;;5042985;28;20249;-71
2022/09/12 09:26:56;;;;;;;1.70;1.60;;;;;;;;;;5060517;28;20716;-71
2022/09/12 09:29:25;;;;;;;2.00;1.88;;;;;;;;;;5058267;28;20231;-72
2022/09/12 09:31:54;;;;;;;1.90;1.80;;;;;;;;;;5056593;28;20697;-71
2022/09/12 09:34:30;;;;;;;1.80;1.70;;;;;;;;;;5018242;28;20216;-72
2022/09/12 09:37:06;;;;;;;2.00;1.80;;;;;;;;;;5073064;28;20215;-72
2022/09/12 09:39:50;;;;;;;2.08;1.98;;;;;;;;;;5034167;28;20226;-71
2022/09/12 09:42:27;;;;;;;2.00;1.80;;;;;;;;;;5044187;28;20219;-71
2022/09/12 09:44:54;;;;;;;1.50;1.40;;;;;;;;;;5071633;28;20224;-71
2022/09/12 09:47:22;;;;;;;1.50;1.40;;;;;;;;;;4993175;28;20231;-71
2022/09/12 09:49:48;;;;;;;2.00;1.90;;;;;;;;;;5018000;28;20737;-71
2022/09/12 09:52:15;;;;;;;1.90;1.80;;;;;;;;;;5036878;28;20621;-72
2022/09/12 09:54:48;;;;;;;2.60;1.55;;;;;;;;;;5050685;28;20223;-71
2022/09/12 09:57:37;;;;;;;1.52;1.42;;;;;;;;;;5052026;28;20345;-72
2022/09/12 10:00:23;;;;;;;2.20;2.00;;;;;;;;;;5042333;28;20284;-71
2022/09/12 10:03:07;;;;;;;2.53;1.90;;;;;;;;;;5053165;28;20220;-71
2022/09/12 10:05:36;;;;;;;2.55;2.08;;;;;;;;;;5041381;28;20843;-71
2022/09/12 10:08:02;;;;;;;3.20;2.47;;;;;;;;;;5054288;28;21161;-73
2022/09/12 10:10:29;;;;;;;2.28;2.05;;;;;;;;;;5053456;28;20301;-71
2022/09/12 10:13:12;;;;;;;2.05;1.90;;;;;;;;;;5070393;28;20270;-71
2022/09/12 10:15:42;;;;;;;2.50;2.30;;;;;;;;;;5062878;28;20224;-71
2022/09/12 10:18:10;;;;;;;2.10;2.00;;;;;;;;;;5035127;28;20228;-72
2022/09/12 10:20:43;;;;;;;2.40;2.25;;;;;;;;;;5057181;28;20223;-72
2022/09/12 10:23:36;;;;;;;3.33;2.28;;;;;;;;;;5062535;28;20223;-72
2022/09/12 10:26:06;;;;;;;3.40;3.20;;;;;;;;;;5061100;28;20320;-71
2022/09/12 10:28:33;;;;;;;3.58;3.25;;;;;;;;;;5038843;28;20227;-71
2022/09/12 10:31:01;;;;;;;2.60;2.40;;;;;;;;;;5035160;28;20230;-72
2022/09/12 10:33:27;;;;;;;2.95;2.60;;;;;;;;;;5045267;28;20303;-71
2022/09/12 10:35:54;;;;;;;2.72;2.45;;;;;;;;;;5057947;28;20244;-71
2022/09/12 10:38:23;;;;;;;3.42;3.08;;;;;;;;;;5057658;28;20744;-72
2022/09/12 10:41:15;;;;;;;3.72;2.80;;;;;;;;;;5071827;28;20223;-71
2022/09/12 10:43:41;;;;;;;3.00;2.80;;;;;;;;;;5040066;28;20681;-71
2022/09/12 10:46:18;;;;;;;3.60;3.40;;;;;;;;;;5062147;28;20239;-73
2022/09/12 10:48:50;;;;;;;3.80;3.50;;;;;;;;;;5037541;28;20988;-71
2022/09/12 10:51:25;;;;;;;3.03;2.70;;;;;;;;;;5067873;28;20219;-71
2022/09/12 10:53:52;;;;;;;2.78;2.50;;;;;;;;;;5068010;28;20234;-71
2022/09/12 10:56:22;;;;;;;3.50;3.20;;;;;;;;;;5043807;28;20246;-71
2022/09/12 10:59:28;;;;;;;3.08;2.55;;;;;;;;;;5062703;28;20298;-72
2022/09/12 11:02:15;;;;;;;3.20;3.00;;;;;;;;;;5056281;28;20227;-72
2022/09/12 11:04:57;;;;;;;3.55;3.13;;;;;;;;;;5043290;28;20608;-73
2022/09/12 11:07:48;;;;;;;3.70;3.40;;;;;;;;;;5058451;28;20227;-73
2022/09/12 11:10:20;;;;;;;3.53;3.22;;;;;;;;;;5071087;28;20215;-73
2022/09/12 11:13:13;;;;;;;3.85;3.55;;;;;;;;;;5039355;28;20462;-71
2022/09/12 11:15:42;;;;;;;4.40;3.70;;;;;;;;;;5037391;28;20911;-72
2022/09/12 11:18:40;;;;;;;3.97;3.30;;;;;;;;;;5039702;28;20234;-74
2022/09/12 11:21:17;;;;;;;3.55;3.08;;;;;;;;;;5039044;28;20302;-73
2022/09/12 11:24:02;;;;;;;6.20;3.70;;;;;;;;;;5055847;28;20309;-74
2022/09/12 11:26:48;;;;;;;4.10;3.80;;;;;;;;;;5036195;28;20247;-73
2022/09/12 11:30:01;;;;;;;5.53;3.75;;;;;;;;;;5038357;28;20226;-73
2022/09/12 11:33:04;;;;;;;3.97;3.40;;;;;;;;;;5020825;28;20631;-74
2022/09/12 11:35:31;;;;;;;3.80;3.50;;;;;;;;;;5050014;28;20672;-74
2022/09/12 11:38:11;;;;;;;3.50;3.20;;;;;;;;;;5039281;28;20224;-73
2022/09/12 11:40:55;;;;;;;3.63;3.33;;;;;;;;;;5035580;28;20419;-74
2022/09/12 11:43:23;;;;;;;3.85;3.25;;;;;;;;;;5040276;28;20294;-73
2022/09/12 11:45:49;;;;;;;3.80;3.00;;;;;;;;;;5055438;28;20744;-73
2022/09/12 11:48:49;;;;;;;3.33;3.03;;;;;;;;;;5010264;28;20216;-74
2022/09/12 11:51:20;;;;;;;3.45;3.15;;;;;;;;;;5038574;28;20223;-74
2022/09/12 11:53:55;;;;;;;4.10;2.85;;;;;;;;;;5043687;28;20228;-74
2022/09/12 11:56:21;;;;;;;3.92;3.00;;;;;;;;;;5043426;28;20238;-73
2022/09/12 11:58:54;;;;;;;4.32;2.90;;;;;;;;;;5056153;28;20798;-74
2022/09/12 12:01:26;;;;;;;3.50;3.15;;;;;;;;;;5012071;28;20712;-74
2022/09/12 12:03:55;;;;;;;3.15;2.50;;;;;;;;;;5042417;28;20222;-73
2022/09/12 12:06:29;;;;;;;3.20;2.30;;;;;;;;;;5025269;28;20759;-72
2022/09/12 12:08:57;;;;;;;4.50;2.83;;;;;;;;;;5024466;28;20251;-74
2022/09/12 12:11:35;;;;;;;4.88;2.95;;;;;;;;;;5028400;28;20625;-73
2022/09/12 12:14:02;;;;;;;2.92;2.72;;;;;;;;;;5061056;28;20238;-72
2022/09/12 12:16:32;;;;;;;3.20;2.90;;;;;;;;;;5066173;28;20322;-73
2022/09/12 12:19:01;;;;;;;3.25;2.80;;;;;;;;;;5031459;28;20262;-70
2022/09/12 12:21:27;;;;;;;3.05;2.83;;;;;;;;;;5037162;28;20241;-72
2022/09/12 12:24:07;;;;;;;3.30;2.40;;;;;;;;;;5043839;28;20298;-74
2022/09/12 12:26:38;;;;;;;3.08;2.75;;;;;;;;;;5035749;28;20231;-72
2022/09/12 12:29:30;;;;;;;3.08;2.78;;;;;;;;;;5056747;28;20281;-75
2022/09/12 12:32:00;;;;;;;3.65;2.83;;;;;;;;;;5026980;28;20702;-71
2022/09/12 12:34:36;;;;;;;3.40;3.10;;;;;;;;;;5052668;28;20216;-74
2022/09/12 12:37:17;;;;;;;3.10;2.90;;;;;;;;;;5016278;28;20242;-72
2022/09/12 12:39:43;;;;;;;3.05;2.83;;;;;;;;;;5039644;28;20230;-71
2022/09/12 12:42:09;;;;;;;3.20;2.90;;;;;;;;;;5070486;28;20233;-72
2022/09/12 12:45:02;;;;;;;3.13;2.80;;;;;;;;;;5047163;28;20219;-71
2022/09/12 12:47:32;;;;;;;3.10;2.90;;;;;;;;;;5027045;28;20311;-74
2022/09/12 12:50:01;;;;;;;3.20;2.90;;;;;;;;;;5055362;28;20231;-73
2022/09/12 12:52:40;;;;;;;6.15;3.05;;;;;;;;;;5055491;28;20219;-71
2022/09/12 12:55:28;;;;;;;3.20;3.00;;;;;;;;;;5053357;28;20222;-71
2022/09/12 12:58:00;;;;;;;2.85;2.65;;;;;;;;;;5047570;28;20237;-74
2022/09/12 13:00:37;;;;;;;4.45;3.10;;;;;;;;;;5058419;28;20607;-74
2022/09/12 13:03:05;;;;;;;4.22;3.10;;;;;;;;;;5057951;28;20230;-73
2022/09/12 13:05:47;;;;;;;2.97;2.67;;;;;;;;;;5038179;28;21053;-71
2022/09/12 13:08:17;;;;;;;2.53;2.33;;;;;;;;;;5026008;28;20227;-74
2022/09/12 13:10:56;;;;;;;2.97;2.47;;;;;;;;;;5037384;28;20224;-75
2022/09/12 13:13:47;;;;;;;3.13;2.83;;;;;;;;;;5059749;28;20377;-74
2022/09/12 13:16:37;;;;;;;2.92;2.63;;;;;;;;;;5037691;28;20223;-71
2022/09/12 13:19:11;;;;;;;2.95;2.72;;;;;;;;;;5040119;28;20780;-73
2022/09/12 13:21:38;;;;;;;6.65;2.65;;;;;;;;;;5025030;28;20219;-72
2022/09/12 13:24:12;;;;;;;3.40;3.10;;;;;;;;;;5054484;28;20234;-71
2022/09/12 13:26:45;;;;;;;2.80;2.60;;;;;;;;;;5057762;28;20241;-73
2022/09/12 13:29:16;;;;;;;6.15;4.10;;;;;;;;;;4999562;28;20241;-73
2022/09/12 13:31:43;;;;;;;4.25;3.75;;;;;;;;;;5039841;28;20334;-72
2022/09/12 13:34:08;;;;;;;4.25;2.55;;;;;;;;;;5056125;28;20223;-73
2022/09/12 13:36:40;;;;;;;3.10;2.80;;;;;;;;;;5035619;28;20996;-73
2022/09/12 13:39:27;;;;;;;3.10;2.78;;;;;;;;;;5032811;28;20234;-72
2022/09/12 13:42:02;;;;;;;2.92;2.60;;;;;;;;;;5059462;28;20223;-72
2022/09/12 13:44:32;;;;;;;2.78;2.55;;;;;;;;;;5044810;28;20335;-72
2022/09/12 13:46:58;;;;;;;3.92;2.85;;;;;;;;;;5030432;28;20228;-73
2022/09/12 13:49:29;;;;;;;2.90;2.70;;;;;;;;;;5060864;28;20303;-73
2022/09/12 13:52:07;;;;;;;2.60;2.40;;;;;;;;;;5058004;28;20250;-72
2022/09/12 13:54:36;;;;;;;2.50;2.30;;;;;;;;;;5058421;28;20220;-72
2022/09/12 13:57:07;;;;;;;2.95;2.75;;;;;;;;;;5038165;28;20261;-73
2022/09/12 13:59:39;;;;;;;2.30;2.10;;;;;;;;;;5057348;28;20772;-71
2022/09/12 14:02:23;;;;;;;2.40;2.20;;;;;;;;;;5074017;28;20236;-72
2022/09/12 14:05:07;;;;;;;3.25;2.20;;;;;;;;;;5038892;28;20773;-72
2022/09/12 14:07:39;;;;;;;2.20;1.80;;;;;;;;;;5031127;28;20607;-73
2022/09/12 14:10:07;;;;;;;4.15;2.40;;;;;;;;;;5062471;28;20259;-72
2022/09/12 14:12:42;;;;;;;2.25;2.10;;;;;;;;;;5055716;28;20220;-72
2022/09/12 14:15:24;;;;;;;2.30;2.10;;;;;;;;;;5043702;28;20850;-73
2022/09/12 14:17:59;;;;;;;2.65;2.20;;;;;;;;;;5021253;28;20220;-73
2022/09/12 14:20:32;;;;;;;2.90;1.95;;;;;;;;;;5014211;28;20250;-73
2022/09/12 14:23:20;;;;;;;2.20;2.00;;;;;;;;;;5057337;28;20257;-72
2022/09/12 14:25:48;;;;;;;2.40;2.20;;;;;;;;;;5045083;28;20233;-73
2022/09/12 14:28:19;;;;;;;2.90;2.70;;;;;;;;;;5017893;28;20228;-73
2022/09/12 14:30:57;;;;;;;1.98;1.88;;;;;;;;;;5069237;28;20651;-73
2022/09/12 14:33:23;;;;;;;2.50;2.30;;;;;;;;;;5075938;28;20231;-73
2022/09/12 14:35:50;;;;;;;1.90;1.80;;;;;;;;;;5055965;28;20222;-72
2022/09/12 14:38:16;;;;;;;2.05;1.88;;;;;;;;;;5039648;28;20739;-73
2022/09/12 14:40:56;;;;;;;2.47;2.08;;;;;;;;;;5039817;28;20226;-73
2022/09/12 14:43:30;;;;;;;2.55;2.08;;;;;;;;;;5062101;28;20223;-73
2022/09/12 14:46:00;;;;;;;2.20;2.00;;;;;;;;;;5048997;28;20232;-74
2022/09/12 14:48:30;;;;;;;1.90;1.80;;;;;;;;;;5034992;28;20277;-73
2022/09/12 14:50:56;;;;;;;2.90;1.90;;;;;;;;;;5012191;28;20226;-74
2022/09/12 14:53:33;;;;;;;1.98;1.83;;;;;;;;;;5064073;28;20232;-73
2022/09/12 14:56:08;;;;;;;4.20;1.92;;;;;;;;;;5060481;28;20227;-74
2022/09/12 14:58:36;;;;;;;3.42;2.70;;;;;;;;;;5053489;28;20302;-74
2022/09/12 15:01:05;;;;;;;2.70;2.50;;;;;;;;;;5040305;28;20382;-74
2022/09/12 15:03:31;;;;;;;2.85;2.33;;;;;;;;;;5034469;28;20235;-74
2022/09/12 15:05:57;;;;;;;3.30;2.35;;;;;;;;;;5071701;28;20235;-74
2022/09/12 15:08:25;;;;;;;3.35;3.05;;;;;;;;;;5061624;28;20231;-74
2022/09/12 15:10:51;;;;;;;4.22;3.38;;;;;;;;;;5017753;28;20242;-72
2022/09/12 15:13:21;;;;;;;4.30;3.60;;;;;;;;;;5070876;28;20224;-73
2022/09/12 15:15:59;;;;;;;3.50;3.30;;;;;;;;;;5069704;28;20224;-73